Irwin, Pennsylvania
Current Conditions -  °F | °C
As of 6:53 PM on Friday 19 Dec 2014 (Local Time) from KAGC Reporting Station
Overcast Overcast  
Wind Chill: 24°   Ceiling: 2600
Heat Index: 30°   Visibility: 10mi
Dew Point: 18°   Wind: 6mph
Humidity: 61%   Direction: 310°NW
Pressure: 30.23"   Gusts: NA
Location:  40.32°N, 79.7°W
Report Text: KAGC 192353Z 31005KT 10SM OVC026 M01/M08 A3023 RMK AO2 SLP256 T10111078 11006 21011 53011
Loading
Personal Weather Stations






























Interactive Weather Map New forecast layout! Learn more

10-Day Weather Forecast

Advertisements
Track Severe Weather on mobile